Time;durP1;ratioP1;P1;durP2;ratioP2;P2;SDS_P1;SDS_P2;PMS_P1;PMS_P2;Temp;Humidity;BMP_temperature;BMP_pressure;BME280_temperature;BME280_humidity;BME280_pressure;Samples;Min_cycle;Max_cycle;Signal;HPM_P1;HPM_P2
2022/04/17 00:01:13;;;;;;;7.57;3.00;;;24.10;99.90;;;;;;5073036;28;20172;-68
2022/04/17 00:03:41;;;;;;;4.20;2.50;;;23.70;99.90;;;;;;5072323;28;20520;-69
2022/04/17 00:06:10;;;;;;;5.67;3.10;;;24.10;99.90;;;;;;5071461;28;20530;-68
2022/04/17 00:08:37;;;;;;;4.63;2.83;;;23.90;99.90;;;;;;5072947;28;20176;-69
2022/04/17 00:11:04;;;;;;;8.40;3.30;;;23.60;99.90;;;;;;5072850;28;20271;-68
2022/04/17 00:13:32;;;;;;;2.77;1.90;;;23.90;99.90;;;;;;5072157;28;20191;-69
2022/04/17 00:15:59;;;;;;;2.37;1.80;;;24.50;99.90;;;;;;5071049;28;20243;-68
2022/04/17 00:18:27;;;;;;;5.80;2.27;;;24.90;99.90;;;;;;5072200;28;20172;-68
2022/04/17 00:20:55;;;;;;;4.07;2.50;;;25.00;99.90;;;;;;5076707;28;20619;-68
2022/04/17 00:23:23;;;;;;;2.83;1.87;;;24.40;99.90;;;;;;5076951;28;20183;-68
2022/04/17 00:25:51;;;;;;;2.53;1.90;;;24.70;99.90;;;;;;5074040;28;20241;-70
2022/04/17 00:28:18;;;;;;;2.50;1.77;;;25.20;99.90;;;;;;5076063;28;20184;-70
2022/04/17 00:30:45;;;;;;;3.37;1.70;;;25.60;99.90;;;;;;5076483;28;20175;-69
2022/04/17 00:33:13;;;;;;;4.27;1.40;;;25.90;99.90;;;;;;5076639;28;20255;-69
2022/04/17 00:35:41;;;;;;;2.80;1.67;;;25.80;99.90;;;;;;5076659;28;20215;-69
2022/04/17 00:38:08;;;;;;;3.70;0.80;;;26.50;99.90;;;;;;5076534;28;20673;-70
2022/04/17 00:40:35;;;;;;;4.43;1.37;;;25.70;99.90;;;;;;5076496;28;20182;-70
2022/04/17 00:43:17;;;;;;;2.87;1.47;;;25.40;99.90;;;;;;5076575;28;20176;-70
2022/04/17 00:45:45;;;;;;;3.60;1.50;;;25.20;99.90;;;;;;5076350;28;20209;-69
2022/04/17 00:48:12;;;;;;;1.83;1.03;;;25.00;99.90;;;;;;5076450;28;20176;-69
2022/04/17 00:50:39;;;;;;;2.40;1.00;;;25.40;99.90;;;;;;5076497;28;20182;-69
2022/04/17 00:53:07;;;;;;;4.77;1.23;;;25.70;99.90;;;;;;5076448;28;20176;-69
2022/04/17 00:55:35;;;;;;;1.43;0.80;;;25.70;99.90;;;;;;5076279;28;20251;-71
2022/04/17 00:58:02;;;;;;;4.03;1.07;;;26.20;99.90;;;;;;5076187;28;20637;-69
2022/04/17 01:00:32;;;;;;;2.23;0.80;;;26.30;99.90;;;;;;5076279;28;20175;-69
2022/04/17 01:03:01;;;;;;;1.57;0.80;;;26.60;99.90;;;;;;5076275;28;20687;-69
2022/04/17 01:05:28;;;;;;;2.73;0.97;;;26.60;99.90;;;;;;5076074;28;20188;-71
2022/04/17 01:07:56;;;;;;;2.70;0.93;;;26.90;99.90;;;;;;5075845;28;20180;-69
2022/04/17 01:10:24;;;;;;;1.03;0.70;;;26.50;99.90;;;;;;5075966;28;20599;-70
2022/04/17 01:12:58;;;;;;;1.10;0.60;;;26.70;99.90;;;;;;5076068;28;20514;-70
2022/04/17 01:15:26;;;;;;;1.27;0.60;;;26.60;99.90;;;;;;5075869;28;20234;-69
2022/04/17 01:17:54;;;;;;;2.43;0.70;;;26.20;99.90;;;;;;5076399;28;20549;-70
2022/04/17 01:20:23;;;;;;;1.90;0.70;;;26.50;99.90;;;;;;5075876;28;20179;-70
2022/04/17 01:26:56;;;;;;;1.97;0.70;;;26.80;99.90;;;;;;5075803;28;20172;-70
2022/04/17 01:28:28;;;;;;;2.43;1.10;;;27.20;99.90;;;;;;5075673;28;20586;-70
2022/04/17 01:30:56;;;;;;;2.87;0.83;;;27.20;99.90;;;;;;5073648;28;20203;-69
2022/04/17 01:33:24;;;;;;;1.43;1.10;;;27.20;99.90;;;;;;5075606;28;20630;-70
2022/04/17 01:35:51;;;;;;;1.47;1.03;;;27.20;99.90;;;;;;5074610;28;20215;-67
2022/04/17 01:38:18;;;;;;;4.17;1.80;;;27.10;99.90;;;;;;5074576;28;20184;-67
2022/04/17 01:40:46;;;;;;;3.03;1.93;;;27.20;99.90;;;;;;5075168;28;20172;-68
2022/04/17 01:43:13;;;;;;;1.60;1.10;;;27.10;99.90;;;;;;5075224;28;20327;-67
2022/04/17 01:45:41;;;;;;;2.50;1.13;;;26.80;99.90;;;;;;5072856;28;20260;-67
2022/04/17 01:48:09;;;;;;;3.00;1.07;;;26.60;99.90;;;;;;5073484;28;20187;-67
2022/04/17 01:50:36;;;;;;;5.60;1.17;;;26.90;99.90;;;;;;5073756;28;20538;-67
2022/04/17 01:53:03;;;;;;;2.40;1.07;;;26.60;99.90;;;;;;5073960;28;20172;-67
2022/04/17 01:55:31;;;;;;;1.67;0.70;;;26.60;99.90;;;;;;5073727;28;20207;-66
2022/04/17 01:57:58;;;;;;;1.57;0.60;;;25.90;99.90;;;;;;5073751;28;20174;-67
2022/04/17 02:00:25;;;;;;;1.63;0.73;;;26.40;99.90;;;;;;5073652;28;20337;-65
2022/04/17 02:02:53;;;;;;;2.20;0.60;;;26.70;99.90;;;;;;5073850;28;20910;-66
2022/04/17 02:05:20;;;;;;;4.57;0.90;;;26.60;99.90;;;;;;5073792;28;20180;-68
2022/04/17 02:07:47;;;;;;;2.20;0.90;;;26.10;99.90;;;;;;5073439;28;20173;-66
2022/04/17 02:10:19;;;;;;;1.00;0.70;;;26.30;99.90;;;;;;5073376;28;20524;-66
2022/04/17 02:12:48;;;;;;;1.53;0.70;;;25.90;99.90;;;;;;5073774;28;20186;-66
2022/04/17 02:15:15;;;;;;;2.30;0.80;;;25.90;99.90;;;;;;5073479;28;20239;-67
2022/04/17 02:17:43;;;;;;;0.77;0.50;;;26.00;99.90;;;;;;5073308;28;20188;-66
2022/04/17 02:20:11;;;;;;;1.77;0.60;;;26.40;99.90;;;;;;5073628;28;20226;-67
2022/04/17 02:22:40;;;;;;;1.23;0.70;;;27.00;99.90;;;;;;5073577;28;20203;-67
2022/04/17 02:25:07;;;;;;;1.43;0.60;;;27.10;99.90;;;;;;5073457;28;20257;-67
2022/04/17 02:27:35;;;;;;;2.70;0.90;;;26.50;99.90;;;;;;5073320;28;20274;-67
2022/04/17 02:30:03;;;;;;;1.80;0.50;;;26.30;99.90;;;;;;5073198;28;20176;-67
2022/04/17 02:32:30;;;;;;;1.47;0.70;;;25.90;99.90;;;;;;5073224;28;20228;-67
2022/04/17 02:34:58;;;;;;;1.73;1.03;;;26.10;99.90;;;;;;5073079;28;20294;-67
2022/04/17 02:37:26;;;;;;;1.63;0.70;;;27.10;99.90;;;;;;5072385;28;20184;-66
2022/04/17 02:39:53;;;;;;;1.37;0.57;;;27.40;99.90;;;;;;5073206;28;20184;-65
2022/04/17 02:42:20;;;;;;;2.73;0.87;;;27.30;99.90;;;;;;5072507;28;20263;-65
2022/04/17 02:44:48;;;;;;;2.97;0.80;;;27.10;99.90;;;;;;5072626;28;20195;-65
2022/04/17 02:50:01;;;;;;;1.77;1.10;;;27.30;99.90;;;;;;5070924;28;20613;-66
2022/04/17 02:52:28;;;;;;;2.50;0.83;;;26.90;99.90;;;;;;5072945;28;20176;-66
2022/04/17 02:54:55;;;;;;;1.70;0.70;;;26.50;99.90;;;;;;5072429;28;20243;-65
2022/04/17 02:57:23;;;;;;;2.40;0.83;;;26.30;99.90;;;;;;5072679;28;20187;-66
2022/04/17 02:59:50;;;;;;;2.27;0.83;;;26.90;99.90;;;;;;5072514;28;20516;-65
2022/04/17 03:07:49;;;;;;;1.23;0.90;;;27.90;99.90;;;;;;5072647;28;20187;-66
2022/04/17 03:10:17;;;;;;;2.67;0.73;;;27.30;99.90;;;;;;5071937;28;20178;-66
2022/04/17 03:12:44;;;;;;;1.63;0.90;;;26.60;99.90;;;;;;5072604;28;20194;-65
2022/04/17 03:15:12;;;;;;;1.43;0.83;;;25.70;99.90;;;;;;5072237;28;20228;-67
2022/04/17 03:17:39;;;;;;;1.43;0.53;;;26.50;99.90;;;;;;5071898;28;20176;-67
2022/04/17 03:20:07;;;;;;;3.57;0.77;;;27.10;99.90;;;;;;5072186;28;20192;-68
2022/04/17 03:22:35;;;;;;;1.87;0.80;;;27.70;99.90;;;;;;5072368;28;20179;-68
2022/04/17 03:25:06;;;;;;;1.20;0.70;;;28.10;99.90;;;;;;5072468;28;20173;-68
2022/04/17 03:27:33;;;;;;;2.53;0.80;;;27.50;99.90;;;;;;5071644;28;20225;-70
2022/04/17 03:30:00;;;;;;;0.97;0.73;;;26.90;99.90;;;;;;5071791;28;20182;-67
2022/04/17 03:32:28;;;;;;;1.90;0.70;;;26.70;99.90;;;;;;5072141;28;20195;-69
2022/04/17 03:34:55;;;;;;;2.10;1.10;;;26.90;99.90;;;;;;5072006;28;20223;-68
2022/04/17 03:37:22;;;;;;;1.33;0.77;;;27.30;99.90;;;;;;5072204;28;20180;-67
2022/04/17 03:39:50;;;;;;;1.10;0.60;;;27.70;99.90;;;;;;5071639;28;20563;-67
2022/04/17 03:42:17;;;;;;;2.00;0.77;;;27.20;99.90;;;;;;5072264;28;20172;-68
2022/04/17 03:44:46;;;;;;;3.30;0.93;;;26.80;99.90;;;;;;5072064;28;20546;-68
2022/04/17 03:47:14;;;;;;;1.30;0.60;;;26.90;99.90;;;;;;5071791;28;20180;-67
2022/04/17 03:49:41;;;;;;;1.17;0.83;;;26.80;99.90;;;;;;5068017;28;20195;-68
2022/04/17 03:52:08;;;;;;;2.27;0.77;;;27.60;99.90;;;;;;5070061;28;20183;-68
2022/04/17 03:54:35;;;;;;;0.83;0.67;;;27.90;99.90;;;;;;5070983;28;20214;-67
2022/04/17 03:57:03;;;;;;;2.70;0.90;;;27.30;99.90;;;;;;5071492;28;20222;-67
2022/04/17 03:59:34;;;;;;;1.40;0.73;;;27.40;99.90;;;;;;5071915;28;20195;-67
2022/04/17 04:02:01;;;;;;;1.93;0.87;;;27.10;99.90;;;;;;5065254;28;20182;-64
2022/04/17 04:04:29;;;;;;;1.20;0.73;;;27.10;99.90;;;;;;5071397;28;20192;-65
2022/04/17 04:06:56;;;;;;;2.53;0.80;;;27.80;99.90;;;;;;5071212;28;20512;-65
2022/04/17 04:09:23;;;;;;;1.83;0.90;;;27.90;99.90;;;;;;5071466;28;20176;-66
2022/04/17 04:11:51;;;;;;;1.53;0.80;;;28.00;99.90;;;;;;5071705;28;20270;-66
2022/04/17 04:14:18;;;;;;;1.03;0.63;;;28.10;99.90;;;;;;5071725;28;20571;-66
2022/04/17 04:16:45;;;;;;;3.63;0.70;;;27.90;99.90;;;;;;5071236;28;20302;-65
2022/04/17 04:19:16;;;;;;;2.90;0.80;;;28.20;99.90;;;;;;5070865;28;20222;-64
2022/04/17 04:21:49;;;;;;;1.73;0.57;;;28.60;99.90;;;;;;5071169;28;20249;-66
2022/04/17 04:24:19;;;;;;;1.63;0.80;;;28.20;99.90;;;;;;5071288;28;20291;-66
2022/04/17 04:29:38;;;;;;;2.30;0.70;;;27.70;99.90;;;;;;5060338;28;20215;-66
2022/04/17 04:32:06;;;;;;;0.90;0.63;;;26.80;99.90;;;;;;5070716;28;20183;-66
2022/04/17 04:34:33;;;;;;;1.70;0.43;;;26.90;99.90;;;;;;5071417;28;20204;-66
2022/04/17 04:37:01;;;;;;;1.33;0.60;;;27.10;99.90;;;;;;5071070;28;20175;-65
2022/04/17 04:39:29;;;;;;;1.43;0.73;;;27.20;99.90;;;;;;5071356;28;20264;-66
2022/04/17 04:41:56;;;;;;;4.00;0.80;;;27.50;99.90;;;;;;5072482;28;20258;-66
2022/04/17 04:44:23;;;;;;;2.27;0.60;;;27.00;99.90;;;;;;5071605;28;20182;-65
2022/04/17 04:46:51;;;;;;;1.37;0.80;;;27.00;99.90;;;;;;5070982;28;20207;-66
2022/04/17 04:49:30;;;;;;;1.53;0.73;;;26.70;99.90;;;;;;5071117;28;20191;-65
2022/04/17 04:52:00;;;;;;;0.70;0.50;;;26.70;99.90;;;;;;5071385;28;20191;-65
2022/04/17 04:54:29;;;;;;;2.77;0.80;;;27.10;99.90;;;;;;5071223;28;20207;-65
2022/04/17 04:56:57;;;;;;;2.23;0.80;;;26.90;99.90;;;;;;5070987;28;20271;-66
2022/04/17 04:59:24;;;;;;;1.33;0.60;;;26.20;99.90;;;;;;5070687;28;20265;-66
2022/04/17 05:01:53;;;;;;;0.73;0.63;;;26.30;99.90;;;;;;5070710;28;20593;-67
2022/04/17 05:04:20;;;;;;;2.13;0.90;;;26.60;99.90;;;;;;5070849;28;20191;-67
2022/04/17 05:06:48;;;;;;;1.47;0.60;;;26.70;99.90;;;;;;5072546;28;20183;-67
2022/04/17 05:09:16;;;;;;;2.43;0.80;;;26.70;99.90;;;;;;5074290;28;20179;-66
2022/04/17 05:11:44;;;;;;;1.00;0.60;;;27.00;99.90;;;;;;5074864;28;20225;-67
2022/04/17 05:14:11;;;;;;;1.10;0.57;;;26.90;99.90;;;;;;5074546;28;20216;-67
2022/04/17 05:16:40;;;;;;;1.80;0.70;;;26.40;99.90;;;;;;5073482;28;20238;-67
2022/04/17 05:19:20;;;;;;;0.70;0.70;;;26.10;99.90;;;;;;5074302;28;20251;-65
2022/04/17 05:21:57;;;;;;;3.17;0.70;;;26.10;99.90;;;;;;5073976;28;20274;-66
2022/04/17 05:24:24;;;;;;;1.77;0.80;;;26.10;99.90;;;;;;5074388;28;20641;-66
2022/04/17 05:26:52;;;;;;;1.53;0.53;;;26.20;99.90;;;;;;5073571;28;20176;-67
2022/04/17 05:29:20;;;;;;;1.10;0.73;;;26.00;99.90;;;;;;5062116;28;20187;-66
2022/04/17 05:31:50;;;;;;;1.30;0.60;;;25.80;99.90;;;;;;5073994;28;20203;-66
2022/04/17 05:34:18;;;;;;;1.13;0.80;;;25.70;99.90;;;;;;5074007;28;20199;-65
2022/04/17 05:36:45;;;;;;;2.00;0.70;;;25.60;99.90;;;;;;5074338;28;20191;-65
2022/04/17 05:39:12;;;;;;;3.23;0.80;;;25.60;99.90;;;;;;5074141;28;20168;-66
2022/04/17 05:41:40;;;;;;;1.13;0.60;;;25.50;99.90;;;;;;5074383;28;20176;-66
2022/04/17 05:44:09;;;;;;;1.40;0.87;;;25.50;99.90;;;;;;5072947;28;20632;-66
2022/04/17 05:46:37;;;;;;;1.47;0.67;;;25.60;99.90;;;;;;5073838;28;20203;-66
2022/04/17 05:49:06;;;;;;;0.80;0.50;;;25.60;99.90;;;;;;5073963;28;20516;-66
2022/04/17 05:51:35;;;;;;;2.63;1.10;;;25.70;99.90;;;;;;5074100;28;20176;-67
2022/04/17 05:54:07;;;;;;;1.03;0.50;;;26.00;99.90;;;;;;5073746;28;20171;-66
2022/04/17 05:56:37;;;;;;;1.20;0.67;;;26.30;99.90;;;;;;5074277;28;20203;-67
2022/04/17 05:59:07;;;;;;;1.47;0.50;;;26.60;99.90;;;;;;5073969;28;20194;-66
2022/04/17 06:01:35;;;;;;;0.50;0.50;;;26.70;99.90;;;;;;5073964;28;20676;-66
2022/04/17 06:04:02;;;;;;;1.03;0.50;;;26.60;99.90;;;;;;5073880;28;20270;-66
2022/04/17 06:06:29;;;;;;;1.27;0.80;;;26.70;99.90;;;;;;5073400;28;20175;-66
2022/04/17 06:08:57;;;;;;;1.40;0.70;;;26.60;99.90;;;;;;5073421;28;20206;-66
2022/04/17 06:11:24;;;;;;;0.97;0.70;;;26.40;99.90;;;;;;5073497;28;20175;-67
2022/04/17 06:13:52;;;;;;;0.57;0.40;;;26.00;99.90;;;;;;5073651;28;20696;-66
2022/04/17 06:16:19;;;;;;;1.10;0.80;;;25.40;99.90;;;;;;5073281;28;20296;-67
2022/04/17 06:18:46;;;;;;;4.20;1.00;;;24.90;99.90;;;;;;5073108;28;20229;-66
2022/04/17 06:21:14;;;;;;;2.43;1.00;;;24.60;99.90;;;;;;5073658;28;20180;-66
2022/04/17 06:23:41;;;;;;;2.80;0.63;;;24.30;99.90;;;;;;5073624;28;20172;-66
2022/04/17 06:26:09;;;;;;;1.63;0.80;;;24.10;99.90;;;;;;5071941;28;20225;-66
2022/04/17 06:28:38;;;;;;;4.77;1.20;;;23.90;99.90;;;;;;5073044;28;20192;-66
2022/04/17 06:31:07;;;;;;;1.83;0.70;;;23.70;99.90;;;;;;5072286;28;20182;-66
2022/04/17 06:33:35;;;;;;;3.13;0.80;;;23.60;99.90;;;;;;5073143;28;20249;-66
2022/04/17 06:36:02;;;;;;;2.97;0.90;;;23.40;99.90;;;;;;5073315;28;20219;-66
2022/04/17 06:38:29;;;;;;;4.27;1.20;;;23.40;99.90;;;;;;5073063;28;20186;-66
2022/04/17 06:40:57;;;;;;;1.10;0.90;;;23.40;99.90;;;;;;5073191;28;20194;-66
2022/04/17 06:43:24;;;;;;;2.57;0.70;;;23.30;99.90;;;;;;5073372;28;20171;-65
2022/04/17 06:45:51;;;;;;;1.40;0.70;;;23.40;99.90;;;;;;5073182;28;20531;-66
2022/04/17 06:48:21;;;;;;;1.13;0.60;;;23.60;99.90;;;;;;5072691;28;20263;-66
2022/04/17 06:50:50;;;;;;;1.90;0.70;;;23.50;99.90;;;;;;5073082;28;20533;-66
2022/04/17 06:53:18;;;;;;;1.83;0.90;;;23.50;99.90;;;;;;5072918;28;20271;-66
2022/04/17 06:55:47;;;;;;;3.47;0.97;;;23.40;99.90;;;;;;5071572;28;20735;-66
2022/04/17 06:58:17;;;;;;;2.07;0.77;;;23.00;99.90;;;;;;5072619;28;20186;-66
2022/04/17 07:00:44;;;;;;;4.13;1.20;;;22.80;99.90;;;;;;5072684;28;20191;-66
2022/04/17 07:03:14;;;;;;;2.80;0.70;;;22.60;99.90;;;;;;5072916;28;20237;-65
2022/04/17 07:05:42;;;;;;;1.90;0.80;;;22.50;99.90;;;;;;5072624;28;20232;-65
2022/04/17 07:08:10;;;;;;;2.83;0.93;;;22.40;99.90;;;;;;5072333;28;20543;-66
2022/04/17 07:10:39;;;;;;;2.70;0.60;;;22.30;99.90;;;;;;5069003;28;20187;-65
2022/04/17 07:13:08;;;;;;;2.53;0.90;;;22.10;99.90;;;;;;5066126;28;20215;-68
2022/04/17 07:15:35;;;;;;;4.33;0.80;;;22.10;99.90;;;;;;5071797;28;20322;-66
2022/04/17 07:18:03;;;;;;;1.27;0.90;;;22.00;99.90;;;;;;5072354;28;20274;-67
2022/04/17 07:20:31;;;;;;;6.83;1.10;;;21.90;99.90;;;;;;5072182;28;20255;-66
2022/04/17 07:23:01;;;;;;;2.67;1.00;;;21.80;99.90;;;;;;5072517;28;20175;-66
2022/04/17 07:25:29;;;;;;;2.77;1.27;;;21.70;99.90;;;;;;5072297;28;20176;-67
2022/04/17 07:27:56;;;;;;;3.73;1.20;;;21.60;99.90;;;;;;5071593;28;20623;-66
2022/04/17 07:30:29;;;;;;;4.53;1.40;;;21.50;99.90;;;;;;5071808;28;20183;-66
2022/04/17 07:32:58;;;;;;;2.00;1.20;;;21.50;99.90;;;;;;5072242;28;20207;-66
2022/04/17 07:35:26;;;;;;;4.60;1.93;;;21.40;99.90;;;;;;5071595;28;20575;-66
2022/04/17 07:37:58;;;;;;;3.17;1.37;;;21.30;99.90;;;;;;5059186;28;20227;-66
2022/04/17 07:40:28;;;;;;;5.37;1.40;;;21.20;99.90;;;;;;5052625;28;20176;-66
2022/04/17 07:43:00;;;;;;;1.87;1.20;;;21.10;99.90;;;;;;5059629;28;20644;-66
2022/04/17 07:45:29;;;;;;;2.67;1.20;;;21.00;99.90;;;;;;5072145;28;20724;-66
2022/04/17 07:47:56;;;;;;;1.83;1.00;;;21.00;99.90;;;;;;5071821;28;20184;-66
2022/04/17 07:50:29;;;;;;;4.23;1.30;;;20.90;99.90;;;;;;5072077;28;20172;-66
2022/04/17 07:52:58;;;;;;;2.87;1.13;;;20.90;99.90;;;;;;5072035;28;20178;-65
2022/04/17 07:55:25;;;;;;;3.10;1.23;;;20.90;99.90;;;;;;5071685;28;20237;-66
2022/04/17 08:00:28;;;;;;;4.13;1.37;;;20.60;99.90;;;;;;5072012;28;20189;-66
2022/04/17 08:03:06;;;;;;;5.13;1.50;;;20.60;99.90;;;;;;5072042;28;20216;-65
2022/04/17 08:05:41;;;;;;;4.37;1.97;;;20.60;99.90;;;;;;5071910;28;20169;-66
2022/04/17 08:08:09;;;;;;;3.73;1.40;;;20.50;99.90;;;;;;5071786;28;20167;-67
2022/04/17 08:10:37;;;;;;;3.37;1.47;;;20.40;99.90;;;;;;5078923;28;20244;-67
2022/04/17 08:13:05;;;;;;;2.60;1.73;;;20.40;99.90;;;;;;5090930;28;20259;-67
2022/04/17 08:15:33;;;;;;;8.67;2.73;;;20.30;99.90;;;;;;5078335;28;20238;-66
2022/04/17 08:18:00;;;;;;;2.07;1.47;;;20.30;99.90;;;;;;5071948;28;20183;-67
2022/04/17 08:20:27;;;;;;;5.13;2.07;;;20.20;99.90;;;;;;5071851;28;20180;-67
2022/04/17 08:22:55;;;;;;;7.13;1.70;;;20.20;99.90;;;;;;5071492;28;20240;-67
2022/04/17 08:25:22;;;;;;;3.67;1.67;;;20.10;99.90;;;;;;5071670;28;20193;-67
2022/04/17 08:27:55;;;;;;;3.43;2.23;;;20.00;99.90;;;;;;5071383;28;20185;-67
2022/04/17 08:30:24;;;;;;;3.73;2.10;;;19.90;99.90;;;;;;5071762;28;20634;-67
2022/04/17 08:32:52;;;;;;;7.73;1.87;;;19.90;99.90;;;;;;5071664;28;20169;-67
2022/04/17 08:35:20;;;;;;;5.93;2.60;;;19.90;99.90;;;;;;5071437;28;20234;-68
2022/04/17 08:37:47;;;;;;;3.30;1.70;;;19.90;99.90;;;;;;5071136;28;20189;-67
2022/04/17 08:40:15;;;;;;;4.20;1.87;;;19.80;99.90;;;;;;5071835;28;20187;-67
2022/04/17 08:42:44;;;;;;;6.97;1.70;;;19.80;99.90;;;;;;5074955;28;20584;-67
2022/04/17 08:45:12;;;;;;;2.37;1.67;;;19.80;99.90;;;;;;5074027;28;20537;-68
2022/04/17 08:47:42;;;;;;;5.20;2.30;;;19.80;99.90;;;;;;5075153;28;20316;-68
2022/04/17 08:50:14;;;;;;;4.77;1.90;;;19.80;99.90;;;;;;5074384;28;20249;-67
2022/04/17 08:52:45;;;;;;;2.27;1.60;;;19.70;99.90;;;;;;5075680;28;20253;-66
2022/04/17 08:55:13;;;;;;;8.40;2.33;;;19.70;99.90;;;;;;5075673;28;20203;-66
2022/04/17 08:57:40;;;;;;;4.53;2.00;;;19.60;99.90;;;;;;5075449;28;20186;-66
2022/04/17 09:00:11;;;;;;;3.17;1.67;;;19.50;99.90;;;;;;5075123;28;20188;-66
2022/04/17 09:02:39;;;;;;;5.40;2.30;;;19.60;99.90;;;;;;5074184;28;20630;-67
2022/04/17 09:05:11;;;;;;;5.40;2.13;;;19.50;99.90;;;;;;5075336;28;20176;-67
2022/04/17 09:07:53;;;;;;;3.13;1.80;;;19.50;99.90;;;;;;5075146;28;20186;-66
2022/04/17 09:10:34;;;;;;;4.37;1.70;;;19.40;99.90;;;;;;5074597;28;20194;-66
2022/04/17 09:13:02;;;;;;;6.70;1.87;;;19.40;99.90;;;;;;5074899;28;20180;-66
2022/04/17 09:15:37;;;;;;;5.30;2.50;;;19.50;99.90;;;;;;5074685;28;20766;-65
2022/04/17 09:18:08;;;;;;;6.20;2.40;;;19.50;99.90;;;;;;5074608;28;20187;-66
2022/04/17 09:20:36;;;;;;;8.37;2.40;;;19.40;99.90;;;;;;5073776;28;20241;-67
2022/04/17 09:23:03;;;;;;;4.57;2.23;;;19.30;99.90;;;;;;5074810;28;20187;-66
2022/04/17 09:25:30;;;;;;;5.43;2.33;;;19.30;99.90;;;;;;5074347;28;20183;-67
2022/04/17 09:28:04;;;;;;;5.07;2.77;;;19.20;99.90;;;;;;5074462;28;20178;-67
2022/04/17 09:30:33;;;;;;;7.70;2.47;;;19.20;99.90;;;;;;5074962;28;20182;-67
2022/04/17 09:33:06;;;;;;;3.67;2.63;;;19.10;99.90;;;;;;5074782;28;20172;-67
2022/04/17 09:35:33;;;;;;;4.53;2.30;;;19.10;99.90;;;;;;5074346;28;20242;-67
2022/04/17 09:38:05;;;;;;;3.97;2.00;;;19.10;99.90;;;;;;5074509;28;20187;-66
2022/04/17 09:40:33;;;;;;;3.80;1.70;;;19.10;99.90;;;;;;5074469;28;20188;-66
2022/04/17 09:43:17;;;;;;;4.33;1.77;;;19.10;99.90;;;;;;5074602;28;20178;-67
2022/04/17 09:46:04;;;;;;;6.00;1.47;;;19.20;99.90;;;;;;5074481;28;20237;-66
2022/04/17 09:48:35;;;;;;;5.13;1.77;;;19.20;99.90;;;;;;5074478;28;20558;-67
2022/04/17 09:51:27;;;;;;;2.50;1.57;;;19.20;99.90;;;;;;5074210;28;20608;-66
2022/04/17 09:53:58;;;;;;;3.10;1.53;;;19.10;99.90;;;;;;5073869;28;20184;-66
2022/04/17 09:56:50;;;;;;;2.37;1.63;;;19.10;99.90;;;;;;5072846;28;20692;-66
2022/04/17 09:59:21;;;;;;;4.30;1.50;;;19.10;99.90;;;;;;5074156;28;20267;-65
2022/04/17 10:01:51;;;;;;;3.30;1.47;;;19.00;99.90;;;;;;5074119;28;20172;-66
2022/04/17 10:04:20;;;;;;;2.43;1.37;;;18.90;99.90;;;;;;5073759;28;20209;-67
2022/04/17 10:06:49;;;;;;;3.87;1.47;;;18.80;99.90;;;;;;5074125;28;20221;-65
2022/04/17 10:09:16;;;;;;;4.47;1.50;;;18.70;99.90;;;;;;5073868;28;20188;-67
2022/04/17 10:11:44;;;;;;;6.07;1.57;;;18.60;99.90;;;;;;5074024;28;20322;-66
2022/04/17 10:14:11;;;;;;;3.63;1.50;;;18.60;99.90;;;;;;5074034;28;20665;-67
2022/04/17 10:16:43;;;;;;;3.93;1.73;;;18.50;99.90;;;;;;5073663;28;20219;-66
2022/04/17 10:19:13;;;;;;;3.20;2.20;;;18.50;99.90;;;;;;5073307;28;20176;-66
2022/04/17 10:21:41;;;;;;;3.23;1.90;;;18.50;99.90;;;;;;5070654;28;20689;-66
2022/04/17 10:24:13;;;;;;;3.90;1.93;;;18.50;99.90;;;;;;5072305;28;20549;-67
2022/04/17 10:26:49;;;;;;;6.03;2.03;;;18.60;99.90;;;;;;5073660;28;20203;-66
2022/04/17 10:29:41;;;;;;;4.03;2.23;;;18.50;99.90;;;;;;5073695;28;20205;-65
2022/04/17 10:32:15;;;;;;;9.00;2.80;;;18.40;99.90;;;;;;5073495;28;20187;-65
2022/04/17 10:35:33;;;;;;;6.17;2.70;;;18.40;99.90;;;;;;5073694;28;20255;-66
2022/04/17 10:38:26;;;;;;;6.40;2.03;;;18.30;99.90;;;;;;5061349;28;20200;-66
2022/04/17 10:41:08;;;;;;;3.90;1.90;;;18.30;99.90;;;;;;5073620;28;20183;-67
2022/04/17 10:43:56;;;;;;;5.13;2.20;;;18.20;99.90;;;;;;5053431;28;20630;-66
2022/04/17 10:46:24;;;;;;;4.67;1.90;;;18.10;99.90;;;;;;5053365;28;20195;-66
2022/04/17 10:49:01;;;;;;;4.53;1.70;;;18.10;99.90;;;;;;5101593;28;20302;-67
2022/04/17 10:51:42;;;;;;;5.80;2.07;;;18.10;99.90;;;;;;5074972;28;20691;-67
2022/04/17 10:54:13;;;;;;;4.30;1.60;;;18.00;99.90;;;;;;5072764;28;20191;-66
2022/04/17 10:57:00;;;;;;;3.70;1.50;;;17.90;99.90;;;;;;5072775;28;20290;-67
2022/04/17 10:59:31;;;;;;;2.73;1.73;;;18.00;99.90;;;;;;5073071;28;20213;-67
2022/04/17 11:02:07;;;;;;;5.90;2.17;;;17.90;99.90;;;;;;5073129;28;20173;-67
2022/04/17 11:04:57;;;;;;;5.03;2.63;;;18.00;99.90;;;;;;5071906;28;20190;-65
2022/04/17 11:07:28;;;;;;;7.57;3.27;;;17.90;99.90;;;;;;5073027;28;20642;-65
2022/04/17 11:10:25;;;;;;;11.87;3.93;;;17.90;99.90;;;;;;5071648;28;20560;-65
2022/04/17 11:12:54;;;;;;;7.67;3.50;;;17.80;99.90;;;;;;5072928;28;20258;-66
2022/04/17 11:15:27;;;;;;;11.63;3.33;;;17.90;99.90;;;;;;5071689;28;20240;-66
2022/04/17 11:17:58;;;;;;;8.90;4.20;;;17.90;99.90;;;;;;5071438;28;20210;-66
2022/04/17 11:20:26;;;;;;;10.60;4.80;;;17.80;99.90;;;;;;5072393;28;20213;-65
2022/04/17 11:22:53;;;;;;;11.53;3.93;;;17.70;99.90;;;;;;5072525;28;20663;-65
2022/04/17 11:25:21;;;;;;;9.27;3.60;;;17.60;99.90;;;;;;5072375;28;20547;-65
2022/04/17 11:27:53;;;;;;;7.43;4.10;;;17.60;99.90;;;;;;5072374;28;20177;-66
2022/04/17 11:30:20;;;;;;;8.90;4.73;;;17.60;99.90;;;;;;5072389;28;20264;-66
2022/04/17 11:32:50;;;;;;;8.93;4.23;;;17.50;99.90;;;;;;5072161;28;20191;-65
2022/04/17 11:35:27;;;;;;;10.23;4.53;;;17.50;99.90;;;;;;5072314;28;20215;-67
2022/04/17 11:38:08;;;;;;;11.30;4.47;;;17.30;99.90;;;;;;5072358;28;20547;-67
2022/04/17 11:40:41;;;;;;;8.33;4.33;;;17.30;99.90;;;;;;5072023;28;20184;-67
2022/04/17 11:43:15;;;;;;;11.23;6.00;;;17.20;99.90;;;;;;5072435;28;20246;-66
2022/04/17 11:45:44;;;;;;;14.40;7.03;;;17.20;99.90;;;;;;5072145;28;20168;-67
2022/04/17 11:48:17;;;;;;;15.53;7.43;;;17.10;99.90;;;;;;5072181;28;20234;-67
2022/04/17 11:50:45;;;;;;;15.30;6.30;;;17.10;99.90;;;;;;5071925;28;20172;-66
2022/04/17 11:53:18;;;;;;;11.17;6.47;;;17.00;99.90;;;;;;5072194;28;20214;-66
2022/04/17 11:55:46;;;;;;;10.57;6.60;;;16.90;99.90;;;;;;5071990;28;20215;-66
2022/04/17 11:58:25;;;;;;;12.10;6.73;;;16.90;99.90;;;;;;5072155;28;20514;-66
2022/04/17 12:01:01;;;;;;;11.50;5.80;;;16.80;99.90;;;;;;5071847;28;20182;-66
2022/04/17 12:03:41;;;;;;;13.83;5.37;;;16.80;99.90;;;;;;5072049;28;20302;-66
2022/04/17 12:06:09;;;;;;;12.33;5.30;;;16.70;99.90;;;;;;5072100;28;20187;-67
2022/04/17 12:08:43;;;;;;;10.07;4.93;;;16.70;99.90;;;;;;5070583;28;20267;-66
2022/04/17 12:11:10;;;;;;;12.30;5.43;;;16.70;99.90;;;;;;5054849;28;20188;-67
2022/04/17 12:13:38;;;;;;;11.03;5.03;;;16.60;99.90;;;;;;5071971;28;20171;-66
2022/04/17 12:16:07;;;;;;;13.43;5.60;;;16.50;99.90;;;;;;5071370;28;20235;-67
2022/04/17 12:18:34;;;;;;;10.83;5.57;;;16.50;99.90;;;;;;5071806;28;20665;-66
2022/04/17 12:21:06;;;;;;;11.07;5.67;;;16.40;99.90;;;;;;5071750;28;20263;-67
2022/04/17 12:23:35;;;;;;;10.67;4.90;;;16.30;99.90;;;;;;5071497;28;20187;-66
2022/04/17 12:26:09;;;;;;;8.87;4.70;;;16.30;99.90;;;;;;5071695;28;20563;-67
2022/04/17 12:28:37;;;;;;;11.67;5.50;;;16.30;99.90;;;;;;5070585;28;20709;-66
2022/04/17 12:31:04;;;;;;;11.23;5.30;;;16.30;99.90;;;;;;5071664;28;20214;-66
2022/04/17 12:33:32;;;;;;;10.87;6.20;;;16.20;99.90;;;;;;5071707;28;20201;-67
2022/04/17 12:36:06;;;;;;;10.83;5.83;;;16.20;99.90;;;;;;5071745;28;20212;-66
2022/04/17 12:38:34;;;;;;;11.93;5.73;;;16.20;99.90;;;;;;5071780;28;20184;-67
2022/04/17 12:41:02;;;;;;;10.10;5.70;;;16.10;99.90;;;;;;5071362;28;20641;-66
2022/04/17 12:43:30;;;;;;;13.83;6.37;;;16.10;99.90;;;;;;5071629;28;20168;-65
2022/04/17 12:46:05;;;;;;;10.17;5.60;;;16.00;99.90;;;;;;5071651;28;20175;-66
2022/04/17 12:48:34;;;;;;;11.90;6.10;;;16.00;99.90;;;;;;5071552;28;20175;-66
2022/04/17 12:51:09;;;;;;;9.27;5.83;;;16.00;99.90;;;;;;5071439;28;20612;-66
2022/04/17 12:53:42;;;;;;;9.90;5.07;;;15.90;99.90;;;;;;5071607;28;20244;-67
2022/04/17 12:56:11;;;;;;;10.27;4.73;;;15.90;99.90;;;;;;5071603;28;20220;-67
2022/04/17 12:58:59;;;;;;;7.43;4.87;;;15.90;99.90;;;;;;5071622;28;20555;-66
2022/04/17 13:01:32;;;;;;;12.90;5.60;;;15.90;99.90;;;;;;5071253;28;20183;-65
2022/04/17 13:04:20;;;;;;;10.17;5.90;;;15.80;99.90;;;;;;5071425;28;20200;-66
2022/04/17 13:06:50;;;;;;;9.17;4.83;;;15.80;99.90;;;;;;5071537;28;20172;-66
2022/04/17 13:09:18;;;;;;;7.90;4.37;;;15.80;99.90;;;;;;5071242;28;20171;-66
2022/04/17 13:11:51;;;;;;;9.90;4.53;;;15.70;99.90;;;;;;5071189;28;20584;-66
2022/04/17 13:14:19;;;;;;;8.27;4.97;;;15.70;99.90;;;;;;5071272;28;20179;-66
2022/04/17 13:16:58;;;;;;;8.03;4.63;;;15.70;99.90;;;;;;5071206;28;20281;-66